sensor_id;sensor_type;location;lat;lon;timestamp;P1;durP1;ratioP1;P2;durP2;ratioP2
74245;SDS011;62601;51.044;13.788;2023-11-21T00:01:15;2.05;;;0.90;;
74245;SDS011;62601;51.044;13.788;2023-11-21T00:03:35;1.40;;;1.30;;
74245;SDS011;62601;51.044;13.788;2023-11-21T00:05:56;1.25;;;0.85;;
74245;SDS011;62601;51.044;13.788;2023-11-21T00:08:16;1.63;;;1.20;;
74245;SDS011;62601;51.044;13.788;2023-11-21T00:10:36;1.42;;;1.33;;
74245;SDS011;62601;51.044;13.788;2023-11-21T00:12:56;1.65;;;1.40;;
74245;SDS011;62601;51.044;13.788;2023-11-21T00:15:16;1.45;;;1.35;;
74245;SDS011;62601;51.044;13.788;2023-11-21T00:17:37;1.15;;;1.00;;
74245;SDS011;62601;51.044;13.788;2023-11-21T00:19:57;1.77;;;1.30;;
74245;SDS011;62601;51.044;13.788;2023-11-21T00:22:17;1.88;;;1.40;;
74245;SDS011;62601;51.044;13.788;2023-11-21T00:24:37;8.15;;;1.33;;
74245;SDS011;62601;51.044;13.788;2023-11-21T00:26:57;1.25;;;1.00;;
74245;SDS011;62601;51.044;13.788;2023-11-21T00:29:17;2.67;;;1.60;;
74245;SDS011;62601;51.044;13.788;2023-11-21T00:31:37;1.85;;;1.05;;
74245;SDS011;62601;51.044;13.788;2023-11-21T00:33:58;2.42;;;1.73;;
74245;SDS011;62601;51.044;13.788;2023-11-21T00:36:18;2.13;;;1.30;;
74245;SDS011;62601;51.044;13.788;2023-11-21T00:38:38;1.50;;;1.33;;
74245;SDS011;62601;51.044;13.788;2023-11-21T00:40:58;1.55;;;1.33;;
74245;SDS011;62601;51.044;13.788;2023-11-21T00:43:18;1.83;;;1.65;;
74245;SDS011;62601;51.044;13.788;2023-11-21T00:45:38;2.85;;;1.50;;
74245;SDS011;62601;51.044;13.788;2023-11-21T00:47:58;1.67;;;1.40;;
74245;SDS011;62601;51.044;13.788;2023-11-21T00:50:18;2.03;;;1.40;;
74245;SDS011;62601;51.044;13.788;2023-11-21T00:52:38;1.65;;;1.23;;
74245;SDS011;62601;51.044;13.788;2023-11-21T00:54:58;1.60;;;1.50;;
74245;SDS011;62601;51.044;13.788;2023-11-21T00:57:19;2.75;;;1.50;;
74245;SDS011;62601;51.044;13.788;2023-11-21T00:59:39;1.40;;;1.30;;
74245;SDS011;62601;51.044;13.788;2023-11-21T01:01:59;3.50;;;2.20;;
74245;SDS011;62601;51.044;13.788;2023-11-21T01:04:19;4.47;;;3.03;;
74245;SDS011;62601;51.044;13.788;2023-11-21T01:06:39;3.65;;;2.03;;
74245;SDS011;62601;51.044;13.788;2023-11-21T01:08:59;2.88;;;1.38;;
74245;SDS011;62601;51.044;13.788;2023-11-21T01:11:19;2.08;;;1.33;;
74245;SDS011;62601;51.044;13.788;2023-11-21T01:13:39;1.50;;;1.30;;
74245;SDS011;62601;51.044;13.788;2023-11-21T01:16:00;2.25;;;1.83;;
74245;SDS011;62601;51.044;13.788;2023-11-21T01:18:20;2.88;;;1.45;;
74245;SDS011;62601;51.044;13.788;2023-11-21T01:20:40;3.40;;;1.52;;
74245;SDS011;62601;51.044;13.788;2023-11-21T01:23:00;1.30;;;1.20;;
74245;SDS011;62601;51.044;13.788;2023-11-21T01:25:20;1.50;;;1.40;;
74245;SDS011;62601;51.044;13.788;2023-11-21T01:27:40;2.25;;;1.42;;
74245;SDS011;62601;51.044;13.788;2023-11-21T01:30:04;1.60;;;1.50;;
74245;SDS011;62601;51.044;13.788;2023-11-21T01:32:24;2.35;;;1.42;;
74245;SDS011;62601;51.044;13.788;2023-11-21T01:34:44;3.17;;;1.50;;
74245;SDS011;62601;51.044;13.788;2023-11-21T01:37:05;2.67;;;1.70;;
74245;SDS011;62601;51.044;13.788;2023-11-21T01:39:25;1.48;;;1.33;;
74245;SDS011;62601;51.044;13.788;2023-11-21T01:41:45;2.80;;;1.48;;
74245;SDS011;62601;51.044;13.788;2023-11-21T01:44:05;2.65;;;1.50;;
74245;SDS011;62601;51.044;13.788;2023-11-21T01:46:25;3.17;;;1.38;;
74245;SDS011;62601;51.044;13.788;2023-11-21T01:48:46;3.55;;;1.90;;
74245;SDS011;62601;51.044;13.788;2023-11-21T01:51:06;3.30;;;1.88;;
74245;SDS011;62601;51.044;13.788;2023-11-21T01:53:27;2.30;;;2.05;;
74245;SDS011;62601;51.044;13.788;2023-11-21T01:55:47;3.58;;;1.42;;
74245;SDS011;62601;51.044;13.788;2023-11-21T01:58:07;3.35;;;1.40;;
74245;SDS011;62601;51.044;13.788;2023-11-21T02:00:28;2.17;;;1.63;;
74245;SDS011;62601;51.044;13.788;2023-11-21T02:02:48;3.00;;;1.52;;
74245;SDS011;62601;51.044;13.788;2023-11-21T02:05:09;1.95;;;1.80;;
74245;SDS011;62601;51.044;13.788;2023-11-21T02:07:29;2.10;;;1.40;;
74245;SDS011;62601;51.044;13.788;2023-11-21T02:09:50;1.80;;;1.60;;
74245;SDS011;62601;51.044;13.788;2023-11-21T02:12:10;2.85;;;1.50;;
74245;SDS011;62601;51.044;13.788;2023-11-21T02:14:30;2.70;;;2.50;;
74245;SDS011;62601;51.044;13.788;2023-11-21T02:16:50;2.50;;;1.90;;
74245;SDS011;62601;51.044;13.788;2023-11-21T02:19:10;2.85;;;1.60;;
74245;SDS011;62601;51.044;13.788;2023-11-21T02:21:31;2.03;;;1.50;;
74245;SDS011;62601;51.044;13.788;2023-11-21T02:23:51;2.42;;;1.80;;
74245;SDS011;62601;51.044;13.788;2023-11-21T02:26:12;2.40;;;2.00;;
74245;SDS011;62601;51.044;13.788;2023-11-21T02:28:32;2.50;;;1.98;;
74245;SDS011;62601;51.044;13.788;2023-11-21T02:30:52;2.90;;;1.75;;
74245;SDS011;62601;51.044;13.788;2023-11-21T02:33:12;6.07;;;2.00;;
74245;SDS011;62601;51.044;13.788;2023-11-21T02:35:32;3.88;;;1.92;;
74245;SDS011;62601;51.044;13.788;2023-11-21T02:37:52;2.03;;;1.75;;
74245;SDS011;62601;51.044;13.788;2023-11-21T02:40:13;2.10;;;1.90;;
74245;SDS011;62601;51.044;13.788;2023-11-21T02:42:36;2.95;;;1.95;;
74245;SDS011;62601;51.044;13.788;2023-11-21T02:44:59;2.05;;;1.60;;
74245;SDS011;62601;51.044;13.788;2023-11-21T02:47:19;2.88;;;1.80;;
74245;SDS011;62601;51.044;13.788;2023-11-21T02:49:39;4.07;;;2.40;;
74245;SDS011;62601;51.044;13.788;2023-11-21T02:51:59;2.38;;;2.17;;
74245;SDS011;62601;51.044;13.788;2023-11-21T02:54:19;3.97;;;1.70;;
74245;SDS011;62601;51.044;13.788;2023-11-21T02:56:39;3.08;;;1.60;;
74245;SDS011;62601;51.044;13.788;2023-11-21T02:59:00;2.20;;;1.67;;
74245;SDS011;62601;51.044;13.788;2023-11-21T03:01:20;2.15;;;1.27;;
74245;SDS011;62601;51.044;13.788;2023-11-21T03:03:40;7.55;;;1.80;;
74245;SDS011;62601;51.044;13.788;2023-11-21T03:06:00;4.88;;;1.58;;
74245;SDS011;62601;51.044;13.788;2023-11-21T03:08:20;3.80;;;2.30;;
74245;SDS011;62601;51.044;13.788;2023-11-21T03:10:40;1.70;;;1.58;;
74245;SDS011;62601;51.044;13.788;2023-11-21T03:13:01;2.80;;;1.60;;
74245;SDS011;62601;51.044;13.788;2023-11-21T03:15:21;3.10;;;1.88;;
74245;SDS011;62601;51.044;13.788;2023-11-21T03:17:41;3.50;;;2.20;;
74245;SDS011;62601;51.044;13.788;2023-11-21T03:20:01;3.35;;;1.58;;
74245;SDS011;62601;51.044;13.788;2023-11-21T03:22:21;4.93;;;3.25;;
74245;SDS011;62601;51.044;13.788;2023-11-21T03:24:41;2.80;;;2.03;;
74245;SDS011;62601;51.044;13.788;2023-11-21T03:27:01;3.10;;;1.95;;
74245;SDS011;62601;51.044;13.788;2023-11-21T03:29:21;2.45;;;1.52;;
74245;SDS011;62601;51.044;13.788;2023-11-21T03:31:41;4.47;;;2.30;;
74245;SDS011;62601;51.044;13.788;2023-11-21T03:34:02;3.28;;;1.95;;
74245;SDS011;62601;51.044;13.788;2023-11-21T03:36:22;1.58;;;1.40;;
74245;SDS011;62601;51.044;13.788;2023-11-21T03:38:42;3.28;;;1.80;;
74245;SDS011;62601;51.044;13.788;2023-11-21T03:41:02;3.10;;;1.90;;
74245;SDS011;62601;51.044;13.788;2023-11-21T03:43:22;4.75;;;2.83;;
74245;SDS011;62601;51.044;13.788;2023-11-21T03:45:42;4.38;;;1.70;;
74245;SDS011;62601;51.044;13.788;2023-11-21T03:48:02;3.72;;;1.80;;
74245;SDS011;62601;51.044;13.788;2023-11-21T03:50:23;3.20;;;1.77;;
74245;SDS011;62601;51.044;13.788;2023-11-21T03:52:43;4.00;;;1.73;;
74245;SDS011;62601;51.044;13.788;2023-11-21T03:55:03;2.17;;;1.52;;
74245;SDS011;62601;51.044;13.788;2023-11-21T03:57:23;5.05;;;1.88;;
74245;SDS011;62601;51.044;13.788;2023-11-21T03:59:43;4.05;;;1.70;;
74245;SDS011;62601;51.044;13.788;2023-11-21T04:02:03;2.53;;;1.90;;
74245;SDS011;62601;51.044;13.788;2023-11-21T04:04:23;5.80;;;2.10;;
74245;SDS011;62601;51.044;13.788;2023-11-21T04:06:43;2.65;;;2.00;;
74245;SDS011;62601;51.044;13.788;2023-11-21T04:09:04;2.88;;;1.92;;
74245;SDS011;62601;51.044;13.788;2023-11-21T04:11:24;4.00;;;2.22;;
74245;SDS011;62601;51.044;13.788;2023-11-21T04:13:44;6.22;;;2.05;;
74245;SDS011;62601;51.044;13.788;2023-11-21T04:16:05;4.43;;;1.90;;
74245;SDS011;62601;51.044;13.788;2023-11-21T04:18:25;4.40;;;2.63;;
74245;SDS011;62601;51.044;13.788;2023-11-21T04:20:45;4.10;;;1.88;;
74245;SDS011;62601;51.044;13.788;2023-11-21T04:23:05;3.45;;;1.80;;
74245;SDS011;62601;51.044;13.788;2023-11-21T04:25:25;3.30;;;2.22;;
74245;SDS011;62601;51.044;13.788;2023-11-21T04:27:45;2.83;;;1.92;;
74245;SDS011;62601;51.044;13.788;2023-11-21T04:30:06;6.57;;;1.90;;
74245;SDS011;62601;51.044;13.788;2023-11-21T04:32:26;4.65;;;1.85;;
74245;SDS011;62601;51.044;13.788;2023-11-21T04:34:46;4.57;;;2.10;;
74245;SDS011;62601;51.044;13.788;2023-11-21T04:37:06;2.85;;;2.20;;
74245;SDS011;62601;51.044;13.788;2023-11-21T04:39:26;4.38;;;2.88;;
74245;SDS011;62601;51.044;13.788;2023-11-21T04:41:46;5.05;;;2.45;;
74245;SDS011;62601;51.044;13.788;2023-11-21T04:44:07;3.03;;;2.10;;
74245;SDS011;62601;51.044;13.788;2023-11-21T04:46:27;3.50;;;2.28;;
74245;SDS011;62601;51.044;13.788;2023-11-21T04:48:47;6.82;;;2.65;;
74245;SDS011;62601;51.044;13.788;2023-11-21T04:51:07;4.75;;;2.55;;
74245;SDS011;62601;51.044;13.788;2023-11-21T04:53:27;3.03;;;2.35;;
74245;SDS011;62601;51.044;13.788;2023-11-21T04:55:47;4.60;;;2.67;;
74245;SDS011;62601;51.044;13.788;2023-11-21T04:58:07;5.32;;;2.47;;
74245;SDS011;62601;51.044;13.788;2023-11-21T05:00:27;7.50;;;2.50;;
74245;SDS011;62601;51.044;13.788;2023-11-21T05:02:47;4.03;;;1.92;;
74245;SDS011;62601;51.044;13.788;2023-11-21T05:05:11;6.25;;;2.05;;
74245;SDS011;62601;51.044;13.788;2023-11-21T05:07:32;2.88;;;2.55;;
74245;SDS011;62601;51.044;13.788;2023-11-21T05:09:52;5.90;;;2.38;;
74245;SDS011;62601;51.044;13.788;2023-11-21T05:12:12;3.22;;;2.30;;
74245;SDS011;62601;51.044;13.788;2023-11-21T05:14:32;6.35;;;2.70;;
74245;SDS011;62601;51.044;13.788;2023-11-21T05:16:52;3.95;;;2.25;;
74245;SDS011;62601;51.044;13.788;2023-11-21T05:19:13;5.03;;;2.42;;
74245;SDS011;62601;51.044;13.788;2023-11-21T05:21:33;6.70;;;2.55;;
74245;SDS011;62601;51.044;13.788;2023-11-21T05:23:53;5.18;;;2.67;;
74245;SDS011;62601;51.044;13.788;2023-11-21T05:26:13;3.80;;;2.65;;
74245;SDS011;62601;51.044;13.788;2023-11-21T05:28:33;5.28;;;3.92;;
74245;SDS011;62601;51.044;13.788;2023-11-21T05:30:53;6.80;;;2.95;;
74245;SDS011;62601;51.044;13.788;2023-11-21T05:33:13;6.80;;;2.97;;
74245;SDS011;62601;51.044;13.788;2023-11-21T05:35:34;7.53;;;3.00;;
74245;SDS011;62601;51.044;13.788;2023-11-21T05:37:54;6.65;;;3.22;;
74245;SDS011;62601;51.044;13.788;2023-11-21T05:40:14;3.38;;;2.85;;
74245;SDS011;62601;51.044;13.788;2023-11-21T05:42:34;6.68;;;3.03;;
74245;SDS011;62601;51.044;13.788;2023-11-21T05:44:55;5.22;;;2.40;;
74245;SDS011;62601;51.044;13.788;2023-11-21T05:47:15;8.20;;;2.70;;
74245;SDS011;62601;51.044;13.788;2023-11-21T05:49:35;6.22;;;2.55;;
74245;SDS011;62601;51.044;13.788;2023-11-21T05:51:56;6.55;;;2.92;;
74245;SDS011;62601;51.044;13.788;2023-11-21T05:54:16;5.70;;;3.10;;
74245;SDS011;62601;51.044;13.788;2023-11-21T05:56:36;6.10;;;3.05;;
74245;SDS011;62601;51.044;13.788;2023-11-21T05:58:56;3.60;;;2.63;;
74245;SDS011;62601;51.044;13.788;2023-11-21T06:01:16;5.18;;;2.45;;
74245;SDS011;62601;51.044;13.788;2023-11-21T06:03:37;5.43;;;2.72;;
74245;SDS011;62601;51.044;13.788;2023-11-21T06:05:57;4.22;;;2.60;;
74245;SDS011;62601;51.044;13.788;2023-11-21T06:08:17;12.65;;;6.70;;
74245;SDS011;62601;51.044;13.788;2023-11-21T06:10:37;12.30;;;4.00;;
74245;SDS011;62601;51.044;13.788;2023-11-21T06:12:57;5.35;;;3.30;;
74245;SDS011;62601;51.044;13.788;2023-11-21T06:15:17;5.03;;;2.90;;
74245;SDS011;62601;51.044;13.788;2023-11-21T06:17:37;7.50;;;3.20;;
74245;SDS011;62601;51.044;13.788;2023-11-21T06:19:57;5.28;;;3.00;;
74245;SDS011;62601;51.044;13.788;2023-11-21T06:22:17;5.15;;;3.20;;
74245;SDS011;62601;51.044;13.788;2023-11-21T06:24:38;4.72;;;3.17;;
74245;SDS011;62601;51.044;13.788;2023-11-21T06:26:58;7.13;;;3.17;;
74245;SDS011;62601;51.044;13.788;2023-11-21T06:29:18;7.75;;;3.20;;
74245;SDS011;62601;51.044;13.788;2023-11-21T06:31:38;7.28;;;3.10;;
74245;SDS011;62601;51.044;13.788;2023-11-21T06:33:58;7.38;;;3.83;;
74245;SDS011;62601;51.044;13.788;2023-11-21T06:36:18;5.40;;;3.20;;
74245;SDS011;62601;51.044;13.788;2023-11-21T06:38:38;5.13;;;3.47;;
74245;SDS011;62601;51.044;13.788;2023-11-21T06:40:58;6.65;;;3.85;;
74245;SDS011;62601;51.044;13.788;2023-11-21T06:43:19;5.20;;;3.45;;
74245;SDS011;62601;51.044;13.788;2023-11-21T06:45:39;7.15;;;3.63;;
74245;SDS011;62601;51.044;13.788;2023-11-21T06:47:59;7.47;;;5.10;;
74245;SDS011;62601;51.044;13.788;2023-11-21T06:50:19;7.45;;;4.97;;
74245;SDS011;62601;51.044;13.788;2023-11-21T06:52:39;6.85;;;3.47;;
74245;SDS011;62601;51.044;13.788;2023-11-21T06:54:59;7.30;;;4.40;;
74245;SDS011;62601;51.044;13.788;2023-11-21T06:57:19;11.25;;;4.38;;
74245;SDS011;62601;51.044;13.788;2023-11-21T06:59:40;7.45;;;3.80;;
74245;SDS011;62601;51.044;13.788;2023-11-21T07:02:00;5.93;;;3.80;;
74245;SDS011;62601;51.044;13.788;2023-11-21T07:04:20;6.28;;;3.40;;
74245;SDS011;62601;51.044;13.788;2023-11-21T07:06:40;7.60;;;4.18;;
74245;SDS011;62601;51.044;13.788;2023-11-21T07:09:00;7.53;;;4.20;;
74245;SDS011;62601;51.044;13.788;2023-11-21T07:11:20;7.65;;;4.22;;
74245;SDS011;62601;51.044;13.788;2023-11-21T07:13:40;7.03;;;3.70;;
74245;SDS011;62601;51.044;13.788;2023-11-21T07:16:01;9.98;;;4.38;;
74245;SDS011;62601;51.044;13.788;2023-11-21T07:18:21;6.82;;;4.20;;
74245;SDS011;62601;51.044;13.788;2023-11-21T07:20:41;10.32;;;4.88;;
74245;SDS011;62601;51.044;13.788;2023-11-21T07:23:01;9.88;;;4.53;;
74245;SDS011;62601;51.044;13.788;2023-11-21T07:25:21;8.82;;;4.47;;
74245;SDS011;62601;51.044;13.788;2023-11-21T07:27:41;9.07;;;3.95;;
74245;SDS011;62601;51.044;13.788;2023-11-21T07:30:01;6.88;;;3.75;;
74245;SDS011;62601;51.044;13.788;2023-11-21T07:32:22;6.00;;;3.88;;
74245;SDS011;62601;51.044;13.788;2023-11-21T07:34:42;6.47;;;3.80;;
74245;SDS011;62601;51.044;13.788;2023-11-21T07:37:02;6.25;;;3.70;;
74245;SDS011;62601;51.044;13.788;2023-11-21T07:39:22;6.85;;;3.53;;
74245;SDS011;62601;51.044;13.788;2023-11-21T07:41:43;8.60;;;4.88;;
74245;SDS011;62601;51.044;13.788;2023-11-21T07:44:03;9.57;;;4.55;;
74245;SDS011;62601;51.044;13.788;2023-11-21T07:46:23;6.90;;;4.32;;
74245;SDS011;62601;51.044;13.788;2023-11-21T07:48:43;7.28;;;4.85;;
74245;SDS011;62601;51.044;13.788;2023-11-21T07:51:06;10.82;;;6.20;;
74245;SDS011;62601;51.044;13.788;2023-11-21T07:53:27;7.18;;;4.72;;
74245;SDS011;62601;51.044;13.788;2023-11-21T07:55:47;11.40;;;4.40;;
74245;SDS011;62601;51.044;13.788;2023-11-21T07:58:07;9.70;;;4.10;;
74245;SDS011;62601;51.044;13.788;2023-11-21T08:00:27;9.77;;;5.22;;
74245;SDS011;62601;51.044;13.788;2023-11-21T08:02:47;15.68;;;12.30;;
74245;SDS011;62601;51.044;13.788;2023-11-21T08:05:08;11.68;;;5.78;;
74245;SDS011;62601;51.044;13.788;2023-11-21T08:07:28;12.43;;;5.45;;
74245;SDS011;62601;51.044;13.788;2023-11-21T08:09:48;7.18;;;5.00;;
74245;SDS011;62601;51.044;13.788;2023-11-21T08:12:08;10.45;;;5.88;;
74245;SDS011;62601;51.044;13.788;2023-11-21T08:14:28;8.90;;;5.10;;
74245;SDS011;62601;51.044;13.788;2023-11-21T08:16:48;6.15;;;4.55;;
74245;SDS011;62601;51.044;13.788;2023-11-21T08:19:08;10.35;;;5.20;;
74245;SDS011;62601;51.044;13.788;2023-11-21T08:21:28;7.45;;;5.00;;
74245;SDS011;62601;51.044;13.788;2023-11-21T08:23:49;9.40;;;5.40;;
74245;SDS011;62601;51.044;13.788;2023-11-21T08:26:09;11.30;;;5.53;;
74245;SDS011;62601;51.044;13.788;2023-11-21T08:28:29;6.68;;;4.70;;
74245;SDS011;62601;51.044;13.788;2023-11-21T08:30:49;12.23;;;5.45;;
74245;SDS011;62601;51.044;13.788;2023-11-21T08:33:09;6.05;;;4.65;;
74245;SDS011;62601;51.044;13.788;2023-11-21T08:35:30;17.65;;;5.85;;
74245;SDS011;62601;51.044;13.788;2023-11-21T08:37:51;11.13;;;5.78;;
74245;SDS011;62601;51.044;13.788;2023-11-21T08:40:11;16.85;;;8.20;;
74245;SDS011;62601;51.044;13.788;2023-11-21T08:42:31;9.98;;;5.90;;
74245;SDS011;62601;51.044;13.788;2023-11-21T08:44:51;14.85;;;6.65;;
74245;SDS011;62601;51.044;13.788;2023-11-21T08:47:12;11.98;;;6.63;;
74245;SDS011;62601;51.044;13.788;2023-11-21T08:49:32;17.42;;;6.78;;
74245;SDS011;62601;51.044;13.788;2023-11-21T08:51:52;11.48;;;5.82;;
74245;SDS011;62601;51.044;13.788;2023-11-21T08:54:12;11.23;;;7.47;;
74245;SDS011;62601;51.044;13.788;2023-11-21T08:56:32;16.95;;;7.70;;
74245;SDS011;62601;51.044;13.788;2023-11-21T08:58:52;12.38;;;6.40;;
74245;SDS011;62601;51.044;13.788;2023-11-21T09:01:12;13.65;;;7.15;;
74245;SDS011;62601;51.044;13.788;2023-11-21T09:03:33;21.80;;;11.00;;
74245;SDS011;62601;51.044;13.788;2023-11-21T09:05:53;13.27;;;6.70;;
74245;SDS011;62601;51.044;13.788;2023-11-21T09:08:13;11.48;;;6.28;;
74245;SDS011;62601;51.044;13.788;2023-11-21T09:10:33;10.85;;;6.20;;
74245;SDS011;62601;51.044;13.788;2023-11-21T09:12:53;19.75;;;12.07;;
74245;SDS011;62601;51.044;13.788;2023-11-21T09:15:13;10.27;;;5.97;;
74245;SDS011;62601;51.044;13.788;2023-11-21T09:17:34;12.25;;;6.22;;
74245;SDS011;62601;51.044;13.788;2023-11-21T09:19:54;11.13;;;5.82;;
74245;SDS011;62601;51.044;13.788;2023-11-21T09:22:14;7.40;;;5.45;;
74245;SDS011;62601;51.044;13.788;2023-11-21T09:24:34;7.65;;;5.60;;
74245;SDS011;62601;51.044;13.788;2023-11-21T09:26:54;10.30;;;5.65;;
74245;SDS011;62601;51.044;13.788;2023-11-21T09:29:14;6.15;;;5.25;;
74245;SDS011;62601;51.044;13.788;2023-11-21T09:31:34;8.98;;;5.53;;
74245;SDS011;62601;51.044;13.788;2023-11-21T09:33:54;10.10;;;5.38;;
74245;SDS011;62601;51.044;13.788;2023-11-21T09:36:15;8.02;;;5.50;;
74245;SDS011;62601;51.044;13.788;2023-11-21T09:38:35;10.98;;;5.68;;
74245;SDS011;62601;51.044;13.788;2023-11-21T09:40:55;8.98;;;6.07;;
74245;SDS011;62601;51.044;13.788;2023-11-21T09:43:16;10.85;;;6.30;;
74245;SDS011;62601;51.044;13.788;2023-11-21T09:45:36;11.60;;;6.95;;
74245;SDS011;62601;51.044;13.788;2023-11-21T09:47:58;7.68;;;5.35;;
74245;SDS011;62601;51.044;13.788;2023-11-21T09:50:18;11.85;;;7.35;;
74245;SDS011;62601;51.044;13.788;2023-11-21T09:52:49;7.93;;;4.90;;
74245;SDS011;62601;51.044;13.788;2023-11-21T09:55:13;6.20;;;3.70;;
74245;SDS011;62601;51.044;13.788;2023-11-21T09:57:35;4.60;;;3.17;;
74245;SDS011;62601;51.044;13.788;2023-11-21T09:59:55;3.55;;;3.15;;
74245;SDS011;62601;51.044;13.788;2023-11-21T10:02:16;3.40;;;2.38;;
74245;SDS011;62601;51.044;13.788;2023-11-21T10:04:37;2.55;;;2.00;;
74245;SDS011;62601;51.044;13.788;2023-11-21T10:06:57;3.20;;;2.22;;
74245;SDS011;62601;51.044;13.788;2023-11-21T10:09:17;2.83;;;2.35;;
74245;SDS011;62601;51.044;13.788;2023-11-21T10:11:39;3.80;;;3.33;;
74245;SDS011;62601;51.044;13.788;2023-11-21T10:13:59;5.70;;;4.32;;
74245;SDS011;62601;51.044;13.788;2023-11-21T10:16:20;5.68;;;5.03;;
74245;SDS011;62601;51.044;13.788;2023-11-21T10:18:42;5.43;;;4.88;;
74245;SDS011;62601;51.044;13.788;2023-11-21T10:21:02;5.32;;;4.82;;
74245;SDS011;62601;51.044;13.788;2023-11-21T10:23:23;7.00;;;5.68;;
74245;SDS011;62601;51.044;13.788;2023-11-21T10:25:43;6.28;;;5.60;;
74245;SDS011;62601;51.044;13.788;2023-11-21T10:28:03;9.18;;;5.97;;
74245;SDS011;62601;51.044;13.788;2023-11-21T10:30:27;8.38;;;6.32;;
74245;SDS011;62601;51.044;13.788;2023-11-21T10:32:47;9.10;;;6.40;;
74245;SDS011;62601;51.044;13.788;2023-11-21T10:35:07;6.55;;;5.68;;
74245;SDS011;62601;51.044;13.788;2023-11-21T10:37:27;7.88;;;6.28;;
74245;SDS011;62601;51.044;13.788;2023-11-21T10:39:48;8.68;;;5.50;;
74245;SDS011;62601;51.044;13.788;2023-11-21T10:42:08;8.23;;;5.13;;
74245;SDS011;62601;51.044;13.788;2023-11-21T10:44:28;7.05;;;5.50;;
74245;SDS011;62601;51.044;13.788;2023-11-21T10:46:49;6.10;;;5.25;;
74245;SDS011;62601;51.044;13.788;2023-11-21T10:49:09;7.47;;;6.18;;
74245;SDS011;62601;51.044;13.788;2023-11-21T10:51:30;7.53;;;5.05;;
74245;SDS011;62601;51.044;13.788;2023-11-21T10:53:53;7.10;;;5.30;;
74245;SDS011;62601;51.044;13.788;2023-11-21T10:56:13;6.97;;;5.43;;
74245;SDS011;62601;51.044;13.788;2023-11-21T10:58:34;7.63;;;5.47;;
74245;SDS011;62601;51.044;13.788;2023-11-21T11:00:55;9.25;;;6.32;;
74245;SDS011;62601;51.044;13.788;2023-11-21T11:03:15;7.88;;;6.45;;
74245;SDS011;62601;51.044;13.788;2023-11-21T11:05:35;8.05;;;6.47;;
74245;SDS011;62601;51.044;13.788;2023-11-21T11:07:58;10.15;;;6.05;;
74245;SDS011;62601;51.044;13.788;2023-11-21T11:10:18;7.55;;;5.50;;
74245;SDS011;62601;51.044;13.788;2023-11-21T11:12:38;9.18;;;6.03;;
74245;SDS011;62601;51.044;13.788;2023-11-21T11:14:59;9.45;;;5.10;;
74245;SDS011;62601;51.044;13.788;2023-11-21T11:17:20;6.45;;;4.72;;
74245;SDS011;62601;51.044;13.788;2023-11-21T11:19:40;5.95;;;5.00;;
74245;SDS011;62601;51.044;13.788;2023-11-21T11:22:04;6.43;;;4.75;;
74245;SDS011;62601;51.044;13.788;2023-11-21T11:29:22;6.53;;;4.60;;
74245;SDS011;62601;51.044;13.788;2023-11-21T11:31:50;5.78;;;4.25;;
74245;SDS011;62601;51.044;13.788;2023-11-21T11:34:17;5.60;;;4.13;;
74245;SDS011;62601;51.044;13.788;2023-11-21T11:36:44;6.78;;;4.50;;
74245;SDS011;62601;51.044;13.788;2023-11-21T11:41:46;5.43;;;4.93;;
74245;SDS011;62601;51.044;13.788;2023-11-21T11:44:09;6.38;;;5.20;;
74245;SDS011;62601;51.044;13.788;2023-11-21T11:46:46;6.78;;;4.78;;
74245;SDS011;62601;51.044;13.788;2023-11-21T11:49:07;6.28;;;4.55;;
74245;SDS011;62601;51.044;13.788;2023-11-21T11:51:27;6.30;;;4.78;;
74245;SDS011;62601;51.044;13.788;2023-11-21T11:53:47;7.00;;;5.38;;
74245;SDS011;62601;51.044;13.788;2023-11-21T11:56:24;7.00;;;4.75;;
74245;SDS011;62601;51.044;13.788;2023-11-21T11:58:44;5.22;;;4.53;;
74245;SDS011;62601;51.044;13.788;2023-11-21T12:01:06;8.23;;;5.50;;
74245;SDS011;62601;51.044;13.788;2023-11-21T12:03:26;7.47;;;5.22;;
74245;SDS011;62601;51.044;13.788;2023-11-21T12:05:46;5.80;;;5.00;;
74245;SDS011;62601;51.044;13.788;2023-11-21T12:08:06;6.38;;;4.80;;
74245;SDS011;62601;51.044;13.788;2023-11-21T12:10:28;6.65;;;5.45;;
74245;SDS011;62601;51.044;13.788;2023-11-21T12:12:49;6.47;;;4.63;;
74245;SDS011;62601;51.044;13.788;2023-11-21T12:15:09;9.65;;;5.95;;
74245;SDS011;62601;51.044;13.788;2023-11-21T12:17:29;5.78;;;4.95;;
74245;SDS011;62601;51.044;13.788;2023-11-21T12:19:49;7.60;;;4.82;;
74245;SDS011;62601;51.044;13.788;2023-11-21T12:22:09;8.40;;;5.43;;
74245;SDS011;62601;51.044;13.788;2023-11-21T12:24:29;7.18;;;5.30;;
74245;SDS011;62601;51.044;13.788;2023-11-21T12:26:49;5.43;;;4.43;;
74245;SDS011;62601;51.044;13.788;2023-11-21T12:29:09;7.70;;;6.00;;
74245;SDS011;62601;51.044;13.788;2023-11-21T12:31:30;6.45;;;5.20;;
74245;SDS011;62601;51.044;13.788;2023-11-21T12:33:50;5.53;;;4.80;;
74245;SDS011;62601;51.044;13.788;2023-11-21T12:36:10;6.65;;;5.28;;
74245;SDS011;62601;51.044;13.788;2023-11-21T12:38:34;9.27;;;5.15;;
74245;SDS011;62601;51.044;13.788;2023-11-21T12:40:54;7.47;;;4.78;;
74245;SDS011;62601;51.044;13.788;2023-11-21T12:43:14;7.22;;;6.03;;
74245;SDS011;62601;51.044;13.788;2023-11-21T12:45:34;5.90;;;4.70;;
74245;SDS011;62601;51.044;13.788;2023-11-21T12:47:55;9.48;;;6.95;;
74245;SDS011;62601;51.044;13.788;2023-11-21T12:50:18;9.23;;;6.35;;
74245;SDS011;62601;51.044;13.788;2023-11-21T12:52:38;8.50;;;5.88;;
74245;SDS011;62601;51.044;13.788;2023-11-21T12:54:59;8.52;;;6.10;;
74245;SDS011;62601;51.044;13.788;2023-11-21T12:57:19;8.40;;;6.00;;
74245;SDS011;62601;51.044;13.788;2023-11-21T12:59:39;7.60;;;6.00;;
74245;SDS011;62601;51.044;13.788;2023-11-21T13:01:59;6.68;;;5.72;;
74245;SDS011;62601;51.044;13.788;2023-11-21T13:04:19;8.55;;;6.00;;
74245;SDS011;62601;51.044;13.788;2023-11-21T13:06:39;9.20;;;6.93;;
74245;SDS011;62601;51.044;13.788;2023-11-21T13:08:59;9.60;;;7.05;;
74245;SDS011;62601;51.044;13.788;2023-11-21T13:11:19;8.65;;;5.75;;
74245;SDS011;62601;51.044;13.788;2023-11-21T13:13:40;8.35;;;6.53;;
74245;SDS011;62601;51.044;13.788;2023-11-21T13:16:01;12.45;;;7.43;;
74245;SDS011;62601;51.044;13.788;2023-11-21T13:18:21;9.55;;;6.82;;
74245;SDS011;62601;51.044;13.788;2023-11-21T13:20:41;10.45;;;7.70;;
74245;SDS011;62601;51.044;13.788;2023-11-21T13:23:06;8.85;;;6.93;;
74245;SDS011;62601;51.044;13.788;2023-11-21T13:25:27;9.32;;;7.18;;
74245;SDS011;62601;51.044;13.788;2023-11-21T13:27:47;10.95;;;7.88;;
74245;SDS011;62601;51.044;13.788;2023-11-21T13:30:07;9.13;;;6.43;;
74245;SDS011;62601;51.044;13.788;2023-11-21T13:32:27;9.50;;;6.53;;
74245;SDS011;62601;51.044;13.788;2023-11-21T13:34:48;8.27;;;6.82;;
74245;SDS011;62601;51.044;13.788;2023-11-21T13:37:08;8.93;;;7.10;;
74245;SDS011;62601;51.044;13.788;2023-11-21T13:39:28;10.23;;;6.93;;
74245;SDS011;62601;51.044;13.788;2023-11-21T13:41:48;8.70;;;7.43;;
74245;SDS011;62601;51.044;13.788;2023-11-21T13:44:08;10.15;;;7.10;;
74245;SDS011;62601;51.044;13.788;2023-11-21T13:46:28;9.95;;;7.45;;
74245;SDS011;62601;51.044;13.788;2023-11-21T13:48:49;11.52;;;7.55;;
74245;SDS011;62601;51.044;13.788;2023-11-21T13:51:09;9.50;;;6.93;;
74245;SDS011;62601;51.044;13.788;2023-11-21T13:53:29;13.43;;;8.25;;
74245;SDS011;62601;51.044;13.788;2023-11-21T13:55:49;10.63;;;7.70;;
74245;SDS011;62601;51.044;13.788;2023-11-21T13:58:09;8.43;;;6.20;;
74245;SDS011;62601;51.044;13.788;2023-11-21T14:00:30;11.23;;;8.10;;